WetterOnline ( https://www.wetteronline.de )

Wetter aktuell Kaltennordheim

Aktuelles Wetter: Meiningen (453m)

6-stündlich | Neueste Meldungen
Ortszeit Temperatur Wetter
Do, 18.07. 20:00 23.2° C bedeckt
Do, 18.07. 14:00 23.7° C bewölkt
Do, 18.07. 8:00 13.4° C leicht bewölkt
Do, 18.07. 2:00 12.6° C wolkenlos
Mi, 17.07. 20:00 18.6° C wolkenlos
Mi, 17.07. 14:00 18.8° C leicht bewölkt
Mi, 17.07. 8:00 12.0° C bedeckt
Mi, 17.07. 2:00 12.4° C bedeckt
Ortszeit Temperatur Wetter
Fr, 19.07. 1:00 18.3° C leichter Regen
Fr, 19.07. 0:50 18.3° C leichter Regen
Fr, 19.07. 0:40 19.6° C bewölkt
Fr, 19.07. 0:30 19.7° C bewölkt
Fr, 19.07. 0:20 19.7° C bewölkt
Fr, 19.07. 0:10 20.1° C bewölkt
Fr, 19.07. 0:00 20.5° C bedeckt
Do, 18.07. 23:30 20.6° C bewölkt
Do, 18.07. 23:00 21.1° C wolkig
Do, 18.07. 22:30 21.5° C bewölkt
Do, 18.07. 22:00 21.6° C bedeckt
Ortszeit Relative Feuchte Sichtweite
Do, 18.07. 20:00 40% 55 km
Do, 18.07. 14:00 37% >70 km
Do, 18.07. 8:00 79% 50 km
Do, 18.07. 2:00 86% 65 km
Mi, 17.07. 20:00 57% >70 km
Mi, 17.07. 14:00 59% 60 km
Mi, 17.07. 8:00 86% 19 km
Mi, 17.07. 2:00 88% 24 km
Ortszeit Relative Feuchte Sichtweite
Fr, 19.07. 1:00 64% 35 km
Fr, 19.07. 0:50 64% -
Fr, 19.07. 0:40 57% -
Fr, 19.07. 0:30 56% 50 km
Fr, 19.07. 0:20 56% -
Fr, 19.07. 0:10 55% -
Fr, 19.07. 0:00 53% 55 km
Do, 18.07. 23:30 52% 45 km
Do, 18.07. 23:00 49% 50 km
Do, 18.07. 22:30 48% 55 km
Do, 18.07. 22:00 47% 50 km
Ortszeit Niederschlagsmenge Niederschlagsart
Do, 18.07. 20:00 0.0 l/m2 in 12 Std. -
Do, 18.07. 14:00 0.0 l/m2 in 6 Std. -
Do, 18.07. 8:00 0.0 l/m2 in 12 Std. -
Do, 18.07. 2:00 0.0 l/m2 in 6 Std. -
Mi, 17.07. 20:00 0.0 l/m2 in 12 Std. -
Mi, 17.07. 14:00 0.0 l/m2 in 6 Std. -
Mi, 17.07. 8:00 0.0 l/m2 in 12 Std. -
Mi, 17.07. 2:00 0.0 l/m2 in 6 Std. -
Ortszeit Niederschlagsmenge Niederschlagsart
Fr, 19.07. 1:00 0.1 l/m2 in 1 Std. Regen
Fr, 19.07. 0:50 keine Meldung -
Fr, 19.07. 0:40 keine Meldung -
Fr, 19.07. 0:30 0.0 l/m2 in 1 Std. -
Fr, 19.07. 0:20 keine Meldung -
Fr, 19.07. 0:10 keine Meldung -
Fr, 19.07. 0:00 0.1 l/m2 in 1 Std. Regen
Do, 18.07. 23:30 0.1 l/m2 in 1 Std. Schneeregen
Do, 18.07. 23:00 0.0 l/m2 in 1 Std. -
Do, 18.07. 22:30 0.0 l/m2 in 1 Std. -
Do, 18.07. 22:00 0.0 l/m2 in 1 Std. -
Ortszeit Stärke Spitze Richtung
km/h Bft. km/h Grad Sektor
Do, 18.07. 20:00 7 2 40 230° SW
Do, 18.07. 14:00 13 3 24 270° W
Do, 18.07. 8:00 4 1 7 360° N
Do, 18.07. 2:00 0 0 22 - -
Mi, 17.07. 20:00 19 3 30 10° N
Mi, 17.07. 14:00 7 2 22 340° N
Mi, 17.07. 8:00 7 2 22 350° N
Mi, 17.07. 2:00 15 3 24 340° N
Ortszeit Stärke Spitze Richtung
km/h Bft. km/h Grad Sektor
Fr, 19.07. 1:00 7 2 11 180° S
Fr, 19.07. 0:50 7 2 - 180° S
Fr, 19.07. 0:40 6 1 - 240° SW
Fr, 19.07. 0:30 6 1 11 200° S
Fr, 19.07. 0:20 6 1 - 200° S
Fr, 19.07. 0:10 7 2 - 240° SW
Fr, 19.07. 0:00 7 2 14 260° W
Do, 18.07. 23:30 9 2 15 270° W
Do, 18.07. 23:00 7 2 15 260° W
Do, 18.07. 22:30 6 1 9 250° W
Do, 18.07. 22:00 4 1 11 250° W
Ortszeit Untergrenze Bedeckung Gattung
total tief tief mittel hoch
Do, 18.07. 20:00 3900 m 8/8 8/8 - - -
Do, 18.07. 14:00 1500 m 8/8 6/8 - - -
Do, 18.07. 8:00 9000 m 7/8 0/8 - - -
Do, 18.07. 2:00 - 0/8 0/8 - - -
Mi, 17.07. 20:00 - 0/8 0/8 - - -
Mi, 17.07. 14:00 9000 m 6/8 0/8 - - -
Mi, 17.07. 8:00 240 m 8/8 8/8 - - -
Mi, 17.07. 2:00 240 m 8/8 8/8 - - -
Ortszeit Bedeckungsgrad in Achtel und Wolkenuntergrenze
Fr, 19.07. 1:00 5(2400m) 7(3000m) 8(3600m)
Fr, 19.07. 0:50 5(2400m) 7(3000m) 8(3600m)
Fr, 19.07. 0:40 4(2400m) 7(3300m) 8(4200m)
Fr, 19.07. 0:30 7(2400m) 7(3600m) 8(4200m)
Fr, 19.07. 0:20 7(2400m) 7(3600m) 8(4200m)
Fr, 19.07. 0:10 7(2400m) 8(3600m) 8(4500m)
Fr, 19.07. 0:00 5(2400m) 8(2700m)
Do, 18.07. 23:30 2(2100m) 7(2700m)
Do, 18.07. 23:00 1(2100m) 4(2700m) 7(3600m)
Do, 18.07. 22:30 7(2700m) 7(3600m)
Do, 18.07. 22:00 8(2700m) 7(3600m)
Ortszeit Luftdruck NN (hPa) Tendenz (hPa in 3 Std.)
Do, 18.07. 20:00 1011 0,0
Do, 18.07. 14:00 1011 - 0,3
Do, 18.07. 8:00 1013 - 0,2
Do, 18.07. 2:00 1014 - 0,2
Mi, 17.07. 20:00 1013 - 0,6
Mi, 17.07. 14:00 1014 - 0,6
Mi, 17.07. 8:00 1016 - 0,2
Mi, 17.07. 2:00 1017 - 0,1
Ortszeit Luftdruck NN (hPa) Tendenz (hPa in 3 Std.)
Fr, 19.07. 1:00 1013 + 0,7
Fr, 19.07. 0:50 1013 keine Meldung
Fr, 19.07. 0:40 1013 keine Meldung
Fr, 19.07. 0:30 1013 + 0,7
Fr, 19.07. 0:20 1013 keine Meldung
Fr, 19.07. 0:10 1013 keine Meldung
Fr, 19.07. 0:00 1013 + 0,9
Do, 18.07. 23:30 1013 + 1,1
Do, 18.07. 23:00 1012 + 1,0
Do, 18.07. 22:30 1012 + 1,0
Do, 18.07. 22:00 1012 + 0,8
Ortszeit Schneehöhe (cm)
Do, 18.07. 20:00 -
Do, 18.07. 14:00 -
Do, 18.07. 8:00 -
Do, 18.07. 2:00 -
Mi, 17.07. 20:00 -
Mi, 17.07. 14:00 -
Mi, 17.07. 8:00 -
Mi, 17.07. 2:00 -
Ortszeit Schneehöhe (cm)
Fr, 19.07. 1:00 -
Fr, 19.07. 0:50 -
Fr, 19.07. 0:40 -
Fr, 19.07. 0:30 -
Fr, 19.07. 0:20 -
Fr, 19.07. 0:10 -
Fr, 19.07. 0:00 -
Do, 18.07. 23:30 -
Do, 18.07. 23:00 -
Do, 18.07. 22:30 -
Do, 18.07. 22:00 -
Link zu dieser Seite / Seite empfehlen

Das Wetter in ...